Time;durP1;ratioP1;P1;durP2;ratioP2;P2;SDS_P1;SDS_P2;PMS_P1;PMS_P2;Temp;Humidity;BMP_temperature;BMP_pressure;BME280_temperature;BME280_humidity;BME280_pressure;Samples;Min_cycle;Max_cycle;Signal;HPM_P1;HPM_P2
2023/12/13 00:01:35;;;;;;;8.10;1.70;;;8.40;99.90;;;;;;5107815;28;20995;-71
2023/12/13 00:04:04;;;;;;;7.53;0.70;;;8.40;99.90;;;;;;5108216;28;20489;-70
2023/12/13 00:06:34;;;;;;;5.90;0.63;;;8.40;99.90;;;;;;5107965;28;20448;-71
2023/12/13 00:09:02;;;;;;;7.63;0.90;;;8.40;99.90;;;;;;5108216;28;20476;-69
2023/12/13 00:11:30;;;;;;;6.70;0.80;;;8.30;99.90;;;;;;5108389;28;20447;-67
2023/12/13 00:13:59;;;;;;;6.27;0.87;;;8.20;99.90;;;;;;5108002;28;20528;-68
2023/12/13 00:16:27;;;;;;;7.30;0.80;;;8.10;99.90;;;;;;5107699;28;20567;-70
2023/12/13 00:18:55;;;;;;;7.43;1.00;;;8.00;99.90;;;;;;5108236;28;20511;-70
2023/12/13 00:21:23;;;;;;;7.13;1.03;;;7.90;99.90;;;;;;5107983;28;20476;-70
2023/12/13 00:23:53;;;;;;;7.73;1.20;;;7.80;99.90;;;;;;5099693;28;20465;-69
2023/12/13 00:26:21;;;;;;;6.67;1.07;;;7.80;99.90;;;;;;5107526;28;20457;-68
2023/12/13 00:28:49;;;;;;;6.07;0.77;;;7.70;99.90;;;;;;5106987;28;20550;-69
2023/12/13 00:31:17;;;;;;;5.90;0.60;;;7.60;99.90;;;;;;5112906;27;20462;-69
2023/12/13 00:33:45;;;;;;;8.03;0.93;;;7.50;99.90;;;;;;5122185;27;20510;-71
2023/12/13 00:36:13;;;;;;;7.30;1.20;;;7.40;99.90;;;;;;5106477;27;20450;-70
2023/12/13 00:38:41;;;;;;;6.67;0.80;;;7.40;99.90;;;;;;5108142;27;20450;-69
2023/12/13 00:41:11;;;;;;;6.97;0.70;;;7.30;99.90;;;;;;5106569;28;20485;-68
2023/12/13 00:43:39;;;;;;;5.90;0.80;;;7.20;99.90;;;;;;5106024;28;20831;-69
2023/12/13 00:46:14;;;;;;;5.73;0.57;;;7.20;99.90;;;;;;5107492;27;20445;-70
2023/12/13 00:48:42;;;;;;;8.80;1.77;;;7.20;99.90;;;;;;5108596;27;20437;-69
2023/12/13 00:51:16;;;;;;;6.63;0.77;;;7.10;99.90;;;;;;5106918;28;20449;-70
2023/12/13 00:53:44;;;;;;;7.10;1.00;;;6.90;99.90;;;;;;5105870;28;20454;-71
2023/12/13 00:56:14;;;;;;;6.57;0.70;;;6.80;99.90;;;;;;5108248;27;20518;-69
2023/12/13 00:58:42;;;;;;;6.63;0.90;;;6.80;99.90;;;;;;5107939;27;20477;-68
2023/12/13 01:01:10;;;;;;;6.40;0.90;;;6.80;99.90;;;;;;5099795;28;20526;-69
2023/12/13 01:03:38;;;;;;;6.10;0.70;;;6.90;99.90;;;;;;5106694;28;21034;-68
2023/12/13 01:06:09;;;;;;;8.43;0.80;;;6.90;99.90;;;;;;5101161;27;20478;-68
2023/12/13 01:08:37;;;;;;;6.33;1.07;;;7.00;99.90;;;;;;5106067;27;20551;-71
2023/12/13 01:11:08;;;;;;;6.60;0.90;;;7.10;99.90;;;;;;5105760;28;20445;-69
2023/12/13 01:13:38;;;;;;;6.23;0.80;;;7.20;99.90;;;;;;5105297;28;20461;-69
2023/12/13 01:16:07;;;;;;;7.50;1.80;;;7.20;99.90;;;;;;5105819;28;20467;-68
2023/12/13 01:18:35;;;;;;;7.63;1.00;;;7.30;99.90;;;;;;5105909;28;20569;-72
2023/12/13 01:21:03;;;;;;;6.93;1.03;;;7.40;99.90;;;;;;5105933;28;20951;-69
2023/12/13 01:23:31;;;;;;;8.20;1.63;;;7.40;99.90;;;;;;5105016;28;20545;-69
2023/12/13 01:25:59;;;;;;;6.27;0.90;;;7.30;99.90;;;;;;5104782;28;20546;-70
2023/12/13 01:28:27;;;;;;;8.00;1.00;;;7.30;99.90;;;;;;5105728;28;20528;-70
2023/12/13 01:30:57;;;;;;;7.10;1.00;;;7.40;99.90;;;;;;5105823;28;20485;-69
2023/12/13 01:33:25;;;;;;;7.20;1.03;;;7.40;99.90;;;;;;5105434;28;20468;-69
2023/12/13 01:35:54;;;;;;;6.40;0.83;;;7.50;99.90;;;;;;5097257;28;20494;-70
2023/12/13 01:38:22;;;;;;;7.83;1.20;;;7.50;99.90;;;;;;5104979;28;20550;-69
2023/12/13 01:40:50;;;;;;;6.60;1.20;;;7.50;99.90;;;;;;5105133;28;20474;-69
2023/12/13 01:43:38;;;;;;;7.07;0.90;;;7.60;99.90;;;;;;5104604;28;20839;-69
2023/12/13 01:46:08;;;;;;;6.93;0.90;;;7.70;99.90;;;;;;5104623;28;20495;-68
2023/12/13 01:48:36;;;;;;;9.13;1.00;;;7.70;99.90;;;;;;5105363;28;20453;-68
2023/12/13 01:51:05;;;;;;;6.90;1.00;;;7.80;99.90;;;;;;5105568;28;20556;-69
2023/12/13 01:53:35;;;;;;;7.50;1.03;;;7.80;99.90;;;;;;5104316;28;20489;-69
2023/12/13 01:56:05;;;;;;;6.33;0.90;;;7.70;99.90;;;;;;5104379;28;20474;-69
2023/12/13 01:58:36;;;;;;;6.10;0.70;;;7.70;99.90;;;;;;5104967;28;20493;-69
2023/12/13 02:01:05;;;;;;;6.60;1.00;;;7.80;99.90;;;;;;5105622;28;20445;-71
2023/12/13 02:03:36;;;;;;;6.97;0.70;;;7.90;99.90;;;;;;5102931;28;20473;-69
2023/12/13 02:06:05;;;;;;;5.93;0.80;;;7.80;99.90;;;;;;5105518;28;20522;-69
2023/12/13 02:08:34;;;;;;;7.07;0.87;;;7.80;99.90;;;;;;5105708;28;20469;-69
2023/12/13 02:11:02;;;;;;;7.50;1.37;;;7.90;99.90;;;;;;5105828;28;20491;-71
2023/12/13 02:13:30;;;;;;;6.63;0.70;;;7.90;99.90;;;;;;5099574;28;20470;-68
2023/12/13 02:15:58;;;;;;;8.70;1.00;;;8.00;99.90;;;;;;5105027;28;20446;-68
2023/12/13 02:18:28;;;;;;;5.90;0.80;;;8.00;99.90;;;;;;5106246;28;20473;-70
2023/12/13 02:20:57;;;;;;;5.80;0.70;;;7.90;99.90;;;;;;5106328;28;20477;-68
2023/12/13 02:23:26;;;;;;;7.23;0.80;;;7.80;99.90;;;;;;5105387;28;20449;-69
2023/12/13 02:25:58;;;;;;;6.00;0.60;;;7.80;99.90;;;;;;5105346;28;20452;-68
2023/12/13 02:28:27;;;;;;;8.77;0.80;;;7.70;99.90;;;;;;5105264;28;20465;-68
2023/12/13 02:30:56;;;;;;;5.83;0.60;;;7.70;99.90;;;;;;5106330;28;20566;-70
2023/12/13 02:33:25;;;;;;;8.10;0.90;;;7.80;99.90;;;;;;5105688;28;20456;-69
2023/12/13 02:35:54;;;;;;;7.40;0.87;;;7.70;99.90;;;;;;5102895;28;20473;-70
2023/12/13 02:38:22;;;;;;;6.50;0.60;;;7.60;99.90;;;;;;5105868;28;20444;-69
2023/12/13 02:40:52;;;;;;;7.90;1.00;;;7.60;99.90;;;;;;5105397;28;20457;-68
2023/12/13 02:43:21;;;;;;;7.50;0.70;;;7.50;99.90;;;;;;5105105;28;20469;-69
2023/12/13 02:45:49;;;;;;;6.87;0.70;;;7.50;99.90;;;;;;5105172;28;20499;-68
2023/12/13 02:48:17;;;;;;;6.90;0.70;;;7.50;99.90;;;;;;5105843;28;20522;-70
2023/12/13 02:50:46;;;;;;;6.67;0.73;;;7.60;99.90;;;;;;5105612;28;20492;-68
2023/12/13 02:53:14;;;;;;;8.67;0.70;;;7.60;99.90;;;;;;5104939;28;20442;-69
2023/12/13 02:55:42;;;;;;;5.80;0.57;;;7.70;99.90;;;;;;5105721;28;20561;-69
2023/12/13 02:58:11;;;;;;;7.30;0.70;;;7.60;99.90;;;;;;5107934;28;20478;-68
2023/12/13 03:00:39;;;;;;;5.80;0.40;;;7.70;99.90;;;;;;5103848;28;20502;-68
2023/12/13 03:03:08;;;;;;;6.20;0.80;;;7.70;99.90;;;;;;5104842;28;20529;-68
2023/12/13 03:05:36;;;;;;;7.60;0.73;;;7.70;99.90;;;;;;5108046;28;21037;-68
2023/12/13 03:08:04;;;;;;;6.40;0.43;;;7.70;99.90;;;;;;5109175;28;20846;-68
2023/12/13 03:10:32;;;;;;;5.70;0.50;;;7.80;99.90;;;;;;5109328;28;20523;-69
2023/12/13 03:13:00;;;;;;;6.20;1.20;;;7.70;99.90;;;;;;5109102;28;20472;-66
2023/12/13 03:15:30;;;;;;;5.90;0.43;;;7.70;99.90;;;;;;5108402;28;20470;-69
2023/12/13 03:17:58;;;;;;;7.33;0.87;;;7.80;99.90;;;;;;5101575;28;20441;-70
2023/12/13 03:20:26;;;;;;;6.40;0.70;;;7.80;99.90;;;;;;5099819;27;20477;-69
2023/12/13 03:22:54;;;;;;;6.10;0.60;;;7.80;99.90;;;;;;5102395;27;20482;-69
2023/12/13 03:25:22;;;;;;;6.77;0.70;;;7.70;99.90;;;;;;5107707;28;20460;-69
2023/12/13 03:27:51;;;;;;;7.37;2.07;;;7.60;99.90;;;;;;5107933;28;20929;-68
2023/12/13 03:30:19;;;;;;;7.40;0.90;;;7.60;99.90;;;;;;5108234;28;20480;-70
2023/12/13 03:32:48;;;;;;;7.33;1.00;;;7.60;99.90;;;;;;5106966;28;20449;-70
2023/12/13 03:35:17;;;;;;;7.50;1.20;;;7.60;99.90;;;;;;5101431;28;20469;-68
2023/12/13 03:37:45;;;;;;;6.50;0.70;;;7.50;99.90;;;;;;5107805;28;20592;-68
2023/12/13 03:40:13;;;;;;;7.70;0.90;;;7.40;99.90;;;;;;5107636;28;20554;-68
2023/12/13 03:42:41;;;;;;;7.97;0.70;;;7.40;99.90;;;;;;5107202;28;20546;-69
2023/12/13 03:45:10;;;;;;;9.10;1.37;;;7.40;99.90;;;;;;5106327;28;20462;-69
2023/12/13 03:47:38;;;;;;;7.33;0.80;;;7.50;99.90;;;;;;5107106;28;21111;-69
2023/12/13 03:50:09;;;;;;;6.20;0.80;;;7.50;99.90;;;;;;5106362;28;20443;-67
2023/12/13 03:52:37;;;;;;;6.97;0.70;;;7.50;99.90;;;;;;5106499;28;20446;-70
2023/12/13 03:55:06;;;;;;;8.10;1.70;;;7.50;99.90;;;;;;5105963;28;21097;-69
2023/12/13 03:57:34;;;;;;;6.60;0.70;;;7.50;99.90;;;;;;5106936;28;20553;-69
2023/12/13 04:00:03;;;;;;;9.70;1.40;;;7.40;99.90;;;;;;5107397;28;20471;-68
2023/12/13 04:02:31;;;;;;;7.10;1.00;;;7.40;99.90;;;;;;5106454;28;20450;-68
2023/12/13 04:04:59;;;;;;;8.73;1.67;;;7.30;99.90;;;;;;5106429;28;20549;-68
2023/12/13 04:07:28;;;;;;;7.43;1.20;;;7.20;99.90;;;;;;5107131;28;20460;-69
2023/12/13 04:09:56;;;;;;;7.60;1.47;;;7.20;99.90;;;;;;5106484;28;20887;-68
2023/12/13 04:12:24;;;;;;;10.70;2.10;;;7.10;99.90;;;;;;5099209;28;20482;-69
2023/12/13 04:14:52;;;;;;;11.00;2.47;;;7.00;99.90;;;;;;5085611;28;20477;-68
2023/12/13 04:17:20;;;;;;;8.97;2.70;;;7.00;99.90;;;;;;5087151;28;20531;-69
2023/12/13 04:19:48;;;;;;;9.20;2.27;;;7.00;99.90;;;;;;5085994;28;20448;-69
2023/12/13 04:22:16;;;;;;;9.13;2.37;;;6.90;99.90;;;;;;5086887;28;20473;-69
2023/12/13 04:24:45;;;;;;;6.77;1.20;;;6.80;99.90;;;;;;5086713;28;20474;-67
2023/12/13 04:27:13;;;;;;;8.17;1.47;;;6.70;99.90;;;;;;5087640;28;20445;-67
2023/12/13 04:29:41;;;;;;;8.23;1.27;;;6.60;99.90;;;;;;5087282;28;20516;-68
2023/12/13 04:32:09;;;;;;;7.60;1.00;;;6.60;99.90;;;;;;5086885;28;20489;-68
2023/12/13 04:34:37;;;;;;;9.23;1.97;;;6.50;99.90;;;;;;5086553;28;20473;-69
2023/12/13 04:37:05;;;;;;;13.70;1.90;;;6.60;99.90;;;;;;5082055;28;20466;-70
2023/12/13 04:39:33;;;;;;;10.90;1.90;;;6.50;99.90;;;;;;5087153;28;20532;-68
2023/12/13 04:42:07;;;;;;;8.80;1.90;;;6.40;99.90;;;;;;5087293;28;21003;-69
2023/12/13 04:44:34;;;;;;;10.53;1.80;;;6.50;99.90;;;;;;5095213;28;20513;-68
2023/12/13 04:47:02;;;;;;;9.43;1.60;;;6.50;99.90;;;;;;5095722;28;20446;-69
2023/12/13 04:49:32;;;;;;;7.13;1.50;;;6.60;99.90;;;;;;5087904;28;20805;-68
2023/12/13 04:52:00;;;;;;;8.53;2.00;;;6.50;99.90;;;;;;5081711;28;20495;-68
2023/12/13 04:54:28;;;;;;;9.23;1.30;;;6.60;99.90;;;;;;5087508;28;20474;-69
2023/12/13 04:56:56;;;;;;;6.70;1.40;;;6.50;99.90;;;;;;5087710;28;20529;-68
2023/12/13 04:59:25;;;;;;;8.10;1.70;;;6.40;99.90;;;;;;5087541;28;20450;-68
2023/12/13 05:01:53;;;;;;;11.10;1.43;;;6.50;99.90;;;;;;5086599;28;20494;-68
2023/12/13 05:04:21;;;;;;;8.37;1.27;;;6.60;99.90;;;;;;5085992;28;20470;-68
2023/12/13 05:06:49;;;;;;;7.30;1.43;;;6.60;99.90;;;;;;5087070;28;20450;-68
2023/12/13 05:09:17;;;;;;;9.20;1.70;;;6.60;99.90;;;;;;5089975;28;20564;-68
2023/12/13 05:11:45;;;;;;;7.57;1.50;;;6.60;99.90;;;;;;5107126;27;20597;-68
2023/12/13 05:14:13;;;;;;;6.60;1.53;;;6.60;99.90;;;;;;5118252;27;20456;-69
2023/12/13 05:16:42;;;;;;;9.10;1.53;;;6.70;99.90;;;;;;5123695;27;20440;-68
2023/12/13 05:19:10;;;;;;;7.03;1.47;;;6.70;99.90;;;;;;5085578;28;20442;-68
2023/12/13 05:21:38;;;;;;;7.70;1.63;;;6.70;99.90;;;;;;5096818;27;20464;-68
2023/12/13 05:24:07;;;;;;;7.07;1.67;;;6.70;99.90;;;;;;5124535;27;20946;-68
2023/12/13 05:26:35;;;;;;;7.00;1.20;;;6.60;99.90;;;;;;5124050;27;20490;-70
2023/12/13 05:29:03;;;;;;;10.70;1.83;;;6.60;99.90;;;;;;5089017;28;20837;-69
2023/12/13 05:31:31;;;;;;;6.70;1.30;;;6.50;99.90;;;;;;5111902;27;20929;-66
2023/12/13 05:34:01;;;;;;;7.47;1.83;;;6.40;99.90;;;;;;5109638;27;20486;-68
2023/12/13 05:36:30;;;;;;;7.87;1.20;;;6.30;99.90;;;;;;5109447;27;20434;-69
2023/12/13 05:38:58;;;;;;;7.40;1.43;;;6.30;99.90;;;;;;5084768;28;20841;-70
2023/12/13 05:41:26;;;;;;;8.00;1.83;;;6.30;99.90;;;;;;5084853;28;20917;-70
2023/12/13 05:43:54;;;;;;;6.80;1.43;;;6.20;99.90;;;;;;5085132;28;20502;-72
2023/12/13 05:46:22;;;;;;;7.53;1.70;;;6.20;99.90;;;;;;5085641;28;20453;-70
2023/12/13 05:48:51;;;;;;;7.97;1.50;;;6.30;99.90;;;;;;5085998;28;20797;-72
2023/12/13 05:51:20;;;;;;;11.43;2.33;;;6.50;99.90;;;;;;5085511;28;20816;-68
2023/12/13 05:53:48;;;;;;;8.50;1.90;;;6.50;99.90;;;;;;5085042;28;20531;-71
2023/12/13 05:56:16;;;;;;;10.40;1.87;;;6.50;99.90;;;;;;5085612;28;20545;-69
2023/12/13 05:58:44;;;;;;;8.63;1.90;;;6.50;99.90;;;;;;5080019;28;20462;-68
2023/12/13 06:01:12;;;;;;;8.80;1.83;;;6.50;99.90;;;;;;5084896;28;20521;-70
2023/12/13 06:03:40;;;;;;;6.60;1.20;;;6.50;99.90;;;;;;5083821;28;20471;-69
2023/12/13 06:06:09;;;;;;;6.80;1.33;;;6.50;99.90;;;;;;5083930;28;20446;-71
2023/12/13 06:08:40;;;;;;;7.90;1.90;;;6.50;99.90;;;;;;5084788;28;20486;-70
2023/12/13 06:11:08;;;;;;;8.80;1.90;;;6.60;99.90;;;;;;5084716;28;20832;-70
2023/12/13 06:13:36;;;;;;;8.90;1.57;;;6.60;99.90;;;;;;5083569;28;20920;-69
2023/12/13 06:16:06;;;;;;;8.50;1.70;;;6.70;99.90;;;;;;5085411;28;20446;-70
2023/12/13 06:18:34;;;;;;;6.87;1.70;;;6.70;99.90;;;;;;5086983;28;20471;-69
2023/12/13 06:21:02;;;;;;;8.30;1.00;;;6.60;99.90;;;;;;5084012;28;20552;-71
2023/12/13 06:23:30;;;;;;;7.50;1.30;;;6.70;99.90;;;;;;5083586;28;20462;-70
2023/12/13 06:25:59;;;;;;;7.50;2.07;;;6.80;99.90;;;;;;5082988;28;21196;-71
2023/12/13 06:28:27;;;;;;;10.07;1.50;;;6.80;99.90;;;;;;5091075;28;20836;-71
2023/12/13 06:30:55;;;;;;;9.33;2.23;;;6.80;99.90;;;;;;5085273;28;20601;-71
2023/12/13 06:33:23;;;;;;;7.60;1.40;;;7.00;99.90;;;;;;5084548;28;20485;-70
2023/12/13 06:35:52;;;;;;;6.73;1.23;;;7.00;99.90;;;;;;5084830;28;20442;-71
2023/12/13 06:38:20;;;;;;;7.00;1.50;;;7.00;99.90;;;;;;5086528;28;20587;-70
2023/12/13 06:40:48;;;;;;;8.87;1.40;;;6.90;99.90;;;;;;5089697;28;20455;-71
2023/12/13 06:43:17;;;;;;;12.07;1.90;;;7.00;99.90;;;;;;5088771;28;20537;-70
2023/12/13 06:45:45;;;;;;;7.47;1.33;;;7.10;99.90;;;;;;5088789;28;20513;-72
2023/12/13 06:48:13;;;;;;;10.87;1.33;;;7.10;99.90;;;;;;5089487;28;20458;-70
2023/12/13 06:50:41;;;;;;;7.90;1.63;;;7.10;99.90;;;;;;5098310;28;20902;-72
2023/12/13 06:53:09;;;;;;;9.13;1.50;;;7.10;99.90;;;;;;5088763;28;21380;-68
2023/12/13 06:55:37;;;;;;;8.83;2.90;;;7.10;99.90;;;;;;5088353;28;20508;-70
2023/12/13 06:58:06;;;;;;;8.23;1.40;;;7.10;99.90;;;;;;5089313;28;21015;-70
2023/12/13 07:00:35;;;;;;;8.07;1.73;;;7.10;99.90;;;;;;5084167;28;21061;-69
2023/12/13 07:03:04;;;;;;;8.07;1.50;;;7.10;99.90;;;;;;5100952;28;20444;-71
2023/12/13 07:05:32;;;;;;;7.60;1.30;;;7.20;99.90;;;;;;5108834;28;20469;-71
2023/12/13 07:08:00;;;;;;;6.30;0.90;;;7.30;99.90;;;;;;5108792;28;20556;-70
2023/12/13 07:10:28;;;;;;;8.33;1.80;;;7.30;99.90;;;;;;5109127;28;20442;-70
2023/12/13 07:12:56;;;;;;;7.90;1.40;;;7.30;99.90;;;;;;5108922;28;20484;-70
2023/12/13 07:15:24;;;;;;;6.93;1.30;;;7.40;99.90;;;;;;5108673;28;20549;-71
2023/12/13 07:17:54;;;;;;;8.03;1.40;;;7.30;99.90;;;;;;5097851;28;20478;-71
2023/12/13 07:20:22;;;;;;;6.80;1.10;;;7.30;99.90;;;;;;5088914;28;20502;-71
2023/12/13 07:22:50;;;;;;;7.90;1.60;;;7.40;99.90;;;;;;5087750;28;20504;-71
2023/12/13 07:25:18;;;;;;;8.43;1.00;;;7.40;99.90;;;;;;5088065;28;20470;-71
2023/12/13 07:27:46;;;;;;;8.20;1.40;;;7.50;99.90;;;;;;5088725;28;20890;-71
2023/12/13 07:30:14;;;;;;;8.83;1.27;;;7.50;99.90;;;;;;5088649;28;20466;-73
2023/12/13 07:32:44;;;;;;;6.67;1.13;;;7.60;99.90;;;;;;5088008;28;20481;-71
2023/12/13 07:35:13;;;;;;;8.30;1.80;;;7.60;99.90;;;;;;5086903;28;20469;-70
2023/12/13 07:37:41;;;;;;;8.47;1.70;;;7.60;99.90;;;;;;5087680;28;20528;-70
2023/12/13 07:40:10;;;;;;;9.23;1.50;;;7.70;99.90;;;;;;5087194;28;20513;-69
2023/12/13 07:42:38;;;;;;;8.00;1.07;;;7.70;99.90;;;;;;5087216;28;20446;-71
2023/12/13 07:45:07;;;;;;;6.90;1.10;;;7.70;99.90;;;;;;5086673;28;20548;-70
2023/12/13 07:47:35;;;;;;;8.10;1.07;;;7.80;99.90;;;;;;5087350;28;21146;-71
2023/12/13 07:50:03;;;;;;;10.07;1.63;;;7.80;99.90;;;;;;5097883;28;20592;-71
2023/12/13 07:52:33;;;;;;;8.40;1.57;;;7.90;99.90;;;;;;5106735;28;20564;-69
2023/12/13 07:55:02;;;;;;;9.07;1.37;;;7.90;99.90;;;;;;5101080;27;20576;-70
2023/12/13 07:57:31;;;;;;;6.60;0.97;;;7.90;99.90;;;;;;5123006;27;20448;-69
2023/12/13 07:59:59;;;;;;;7.07;1.23;;;7.90;99.90;;;;;;5111219;27;20844;-71
2023/12/13 08:02:27;;;;;;;7.97;1.20;;;8.00;99.90;;;;;;5115460;27;20445;-71
2023/12/13 08:05:05;;;;;;;7.70;1.47;;;8.00;99.90;;;;;;5106868;27;20977;-70
2023/12/13 08:07:35;;;;;;;7.60;1.30;;;8.00;99.90;;;;;;5101894;27;20453;-69
2023/12/13 08:10:06;;;;;;;7.40;0.97;;;8.00;99.90;;;;;;5115821;27;20475;-71
2023/12/13 08:12:35;;;;;;;6.43;1.10;;;8.00;99.90;;;;;;5086687;28;20447;-69
2023/12/13 08:15:05;;;;;;;7.17;1.10;;;8.00;99.90;;;;;;5086804;28;20467;-71
2023/12/13 08:17:33;;;;;;;11.90;1.03;;;7.90;99.90;;;;;;5087201;28;20474;-72
2023/12/13 08:20:02;;;;;;;7.80;1.40;;;8.10;99.90;;;;;;5085921;28;20450;-70
2023/12/13 08:22:30;;;;;;;6.80;1.30;;;8.10;99.90;;;;;;5087104;28;20537;-71
2023/12/13 08:24:59;;;;;;;7.10;1.20;;;8.10;99.90;;;;;;5086501;28;20548;-71
2023/12/13 08:27:27;;;;;;;8.13;1.20;;;8.10;99.90;;;;;;5086962;28;20500;-70
2023/12/13 08:29:55;;;;;;;7.20;0.97;;;8.00;99.90;;;;;;5086751;28;20505;-69
2023/12/13 08:32:23;;;;;;;8.03;1.30;;;8.10;99.90;;;;;;5086637;28;20472;-70
2023/12/13 08:34:51;;;;;;;6.57;1.23;;;8.20;99.90;;;;;;5085701;28;21198;-71
2023/12/13 08:37:21;;;;;;;7.03;1.30;;;8.10;99.90;;;;;;5086311;28;20473;-71
2023/12/13 08:39:49;;;;;;;6.97;1.00;;;8.10;99.90;;;;;;5085882;28;21041;-70
2023/12/13 08:42:19;;;;;;;7.27;1.20;;;8.10;99.90;;;;;;5085963;28;20522;-70
2023/12/13 08:44:47;;;;;;;7.80;1.73;;;8.10;99.90;;;;;;5085376;28;20529;-70
2023/12/13 08:47:15;;;;;;;7.70;1.47;;;8.10;99.90;;;;;;5086325;28;20481;-70
2023/12/13 08:49:44;;;;;;;8.37;1.33;;;8.10;99.90;;;;;;5086192;28;20456;-70
2023/12/13 08:52:16;;;;;;;9.20;1.40;;;8.10;99.90;;;;;;5085222;28;20457;-69
2023/12/13 08:54:44;;;;;;;6.50;1.43;;;8.20;99.90;;;;;;5086642;28;20490;-71
2023/12/13 08:57:12;;;;;;;6.30;1.20;;;8.20;99.90;;;;;;5086986;28;20561;-69
2023/12/13 08:59:42;;;;;;;7.73;1.53;;;8.30;99.90;;;;;;5086317;28;20453;-70
2023/12/13 09:02:10;;;;;;;6.80;1.43;;;8.30;99.90;;;;;;5085193;28;20460;-69
2023/12/13 09:04:38;;;;;;;7.27;1.33;;;8.30;99.90;;;;;;5085822;28;20471;-68
2023/12/13 09:07:06;;;;;;;6.50;1.07;;;8.30;99.90;;;;;;5097896;28;20473;-69
2023/12/13 09:09:36;;;;;;;8.37;1.13;;;8.40;99.90;;;;;;5103388;28;20687;-65
2023/12/13 09:12:06;;;;;;;7.77;1.30;;;8.50;99.90;;;;;;5091506;28;20893;-69
2023/12/13 09:14:34;;;;;;;7.00;1.23;;;8.60;99.90;;;;;;5091237;28;20573;-68
2023/12/13 09:17:04;;;;;;;8.67;1.20;;;8.70;99.90;;;;;;5094161;28;20455;-69
2023/12/13 09:19:32;;;;;;;7.20;1.00;;;9.00;99.90;;;;;;5095962;28;20444;-69
2023/12/13 09:22:03;;;;;;;7.83;1.90;;;9.20;99.90;;;;;;5098292;28;20513;-67
2023/12/13 09:24:31;;;;;;;7.30;1.30;;;9.30;99.90;;;;;;5085344;28;20458;-69
2023/12/13 09:26:59;;;;;;;7.97;1.20;;;9.40;99.90;;;;;;5086022;28;20453;-69
2023/12/13 09:29:27;;;;;;;6.87;1.10;;;9.50;99.90;;;;;;5084775;28;20449;-69
2023/12/13 09:31:55;;;;;;;10.17;2.00;;;9.50;99.90;;;;;;5086149;28;21030;-69
2023/12/13 09:34:25;;;;;;;7.90;1.10;;;9.50;99.90;;;;;;5084986;28;20502;-68
2023/12/13 09:36:54;;;;;;;7.80;1.00;;;9.50;99.90;;;;;;5085266;28;20453;-70
2023/12/13 09:39:22;;;;;;;7.80;1.00;;;9.50;99.90;;;;;;5085639;28;21114;-67
2023/12/13 09:42:02;;;;;;;8.77;1.23;;;9.50;99.90;;;;;;5085143;28;20522;-69
2023/12/13 09:44:30;;;;;;;7.37;1.10;;;9.40;99.90;;;;;;5084369;28;20560;-68
2023/12/13 09:47:01;;;;;;;7.27;1.10;;;9.50;99.90;;;;;;5085301;28;20493;-68
2023/12/13 09:49:34;;;;;;;7.43;1.20;;;9.50;99.90;;;;;;5085257;28;20545;-67
2023/12/13 09:52:08;;;;;;;7.90;1.03;;;9.60;99.90;;;;;;5084566;28;20453;-68
2023/12/13 09:54:37;;;;;;;6.90;1.20;;;9.60;99.90;;;;;;5084338;28;20897;-68
2023/12/13 09:57:06;;;;;;;6.20;0.90;;;9.60;99.90;;;;;;5085619;28;20453;-69
2023/12/13 09:59:34;;;;;;;8.83;1.20;;;9.60;99.90;;;;;;5085141;28;20514;-68
2023/12/13 10:02:03;;;;;;;6.87;1.80;;;9.60;99.90;;;;;;5083529;28;20461;-68
2023/12/13 10:04:33;;;;;;;7.20;1.23;;;9.50;99.90;;;;;;5087716;28;20480;-70
2023/12/13 10:07:03;;;;;;;6.40;1.17;;;9.50;99.90;;;;;;5116305;27;20877;-70
2023/12/13 10:09:31;;;;;;;6.57;1.13;;;9.40;99.90;;;;;;5110733;27;20445;-71
2023/12/13 10:11:59;;;;;;;6.70;0.90;;;9.30;99.90;;;;;;5104880;27;20963;-69
2023/12/13 10:14:29;;;;;;;7.23;1.20;;;9.30;99.90;;;;;;5121703;27;20959;-70
2023/12/13 10:16:57;;;;;;;6.23;1.00;;;9.30;99.90;;;;;;5090013;28;20453;-70
2023/12/13 10:19:44;;;;;;;7.80;0.80;;;9.40;99.90;;;;;;5089047;28;20453;-68
2023/12/13 10:22:12;;;;;;;6.53;1.10;;;9.30;99.90;;;;;;5111931;27;21065;-69
2023/12/13 10:24:42;;;;;;;6.40;1.10;;;9.40;99.90;;;;;;5106425;27;20546;-68
2023/12/13 10:27:10;;;;;;;8.30;1.37;;;9.40;99.90;;;;;;5097072;28;20528;-69
2023/12/13 10:29:39;;;;;;;7.83;1.20;;;9.40;99.90;;;;;;5105277;28;20454;-67
2023/12/13 10:32:07;;;;;;;6.80;1.07;;;9.30;99.90;;;;;;5122244;28;20428;-69
2023/12/13 10:34:37;;;;;;;6.73;1.00;;;9.30;99.90;;;;;;5091961;28;20603;-69
2023/12/13 10:37:07;;;;;;;6.90;1.20;;;9.40;99.90;;;;;;5084826;28;21009;-67
2023/12/13 10:39:36;;;;;;;8.50;1.20;;;9.40;99.90;;;;;;5084571;28;20492;-67
2023/12/13 10:42:04;;;;;;;8.00;1.50;;;9.50;99.90;;;;;;5084261;28;20447;-69
2023/12/13 10:44:33;;;;;;;7.73;1.70;;;9.60;99.90;;;;;;5083756;28;21002;-69
2023/12/13 10:47:08;;;;;;;8.10;2.50;;;9.80;99.90;;;;;;5084433;28;20987;-67
2023/12/13 10:49:38;;;;;;;8.77;2.27;;;9.90;99.90;;;;;;5084754;28;20470;-68
2023/12/13 10:52:09;;;;;;;17.13;2.60;;;10.20;99.90;;;;;;5084427;28;20466;-68
2023/12/13 10:54:39;;;;;;;10.30;2.53;;;10.30;99.90;;;;;;5083856;28;20492;-69
2023/12/13 10:57:07;;;;;;;6.83;1.27;;;10.40;99.90;;;;;;5084475;28;20448;-67
2023/12/13 10:59:37;;;;;;;8.73;2.20;;;10.50;99.90;;;;;;5084483;28;20461;-70
2023/12/13 11:02:07;;;;;;;9.10;1.70;;;10.60;99.90;;;;;;5084227;28;21163;-68
2023/12/13 11:04:36;;;;;;;9.30;1.57;;;10.90;99.90;;;;;;5083306;28;20475;-68
2023/12/13 11:07:06;;;;;;;7.40;1.70;;;11.40;99.90;;;;;;5085474;28;20465;-68
2023/12/13 11:09:49;;;;;;;7.73;1.60;;;11.70;99.90;;;;;;5086897;28;21146;-69
2023/12/13 11:12:18;;;;;;;7.57;1.47;;;12.00;99.90;;;;;;5077810;28;21087;-69
2023/12/13 11:14:51;;;;;;;8.10;1.47;;;12.10;99.90;;;;;;5085131;28;20486;-68
2023/12/13 11:17:20;;;;;;;9.13;1.90;;;12.30;99.90;;;;;;5094625;28;20454;-68
2023/12/13 11:19:50;;;;;;;7.80;1.27;;;12.20;99.90;;;;;;5087227;28;20451;-70
2023/12/13 11:22:23;;;;;;;7.93;1.40;;;12.00;99.90;;;;;;5090962;28;21043;-69
2023/12/13 11:25:03;;;;;;;7.17;1.30;;;12.00;99.90;;;;;;5095173;28;20473;-68
2023/12/13 11:27:32;;;;;;;8.43;1.30;;;11.90;99.90;;;;;;5099205;28;20483;-71
2023/12/13 11:30:13;;;;;;;6.77;0.90;;;11.90;99.90;;;;;;5099289;28;20470;-68
2023/12/13 11:32:43;;;;;;;7.83;1.57;;;12.10;99.90;;;;;;5099794;28;20490;-69
2023/12/13 11:35:14;;;;;;;6.30;1.30;;;12.20;99.90;;;;;;5097228;28;20481;-69
2023/12/13 11:37:43;;;;;;;7.90;1.60;;;12.40;99.90;;;;;;5099876;28;20483;-70
2023/12/13 11:40:13;;;;;;;6.90;1.00;;;12.30;99.90;;;;;;5098962;28;20974;-69
2023/12/13 11:42:41;;;;;;;8.03;1.40;;;12.20;99.90;;;;;;5096846;28;20444;-70
2023/12/13 11:45:10;;;;;;;9.60;1.30;;;12.10;99.90;;;;;;5094680;28;20496;-70
2023/12/13 11:47:39;;;;;;;8.27;1.37;;;12.10;99.90;;;;;;5097423;28;20442;-69
2023/12/13 11:50:10;;;;;;;8.10;1.00;;;11.90;99.90;;;;;;5100024;28;20453;-70
2023/12/13 11:52:38;;;;;;;6.67;1.00;;;11.90;99.90;;;;;;5098980;28;20433;-69
2023/12/13 11:55:08;;;;;;;5.90;0.60;;;11.80;99.90;;;;;;5100535;28;21006;-67
2023/12/13 11:57:43;;;;;;;6.60;1.07;;;11.80;99.90;;;;;;5099124;28;20463;-68
2023/12/13 12:00:12;;;;;;;6.77;1.30;;;11.80;99.90;;;;;;5091798;28;20438;-69
2023/12/13 12:02:40;;;;;;;6.03;0.80;;;11.80;99.90;;;;;;5097304;28;20499;-69
2023/12/13 12:05:09;;;;;;;7.10;0.83;;;11.80;99.90;;;;;;5100142;28;21007;-69
2023/12/13 12:07:37;;;;;;;5.97;0.93;;;11.70;99.90;;;;;;5094092;28;20775;-70
2023/12/13 12:10:07;;;;;;;6.73;1.47;;;11.70;99.90;;;;;;5095748;28;21172;-70
2023/12/13 12:12:36;;;;;;;7.37;1.50;;;11.90;99.90;;;;;;5095908;28;20453;-69
2023/12/13 12:15:08;;;;;;;9.60;1.77;;;12.10;99.90;;;;;;5097538;28;20488;-69
2023/12/13 12:17:36;;;;;;;6.60;1.20;;;12.30;99.90;;;;;;5097692;28;20798;-69
2023/12/13 12:20:07;;;;;;;11.03;1.80;;;12.60;99.90;;;;;;5097614;28;20453;-67
2023/12/13 12:22:36;;;;;;;8.27;1.70;;;12.80;99.90;;;;;;5094178;28;20453;-68
2023/12/13 12:25:06;;;;;;;6.97;1.10;;;13.00;99.90;;;;;;5087316;28;20489;-67
2023/12/13 12:27:35;;;;;;;10.73;2.30;;;13.20;99.90;;;;;;5096351;28;20496;-69
2023/12/13 12:30:04;;;;;;;7.70;1.20;;;13.20;99.90;;;;;;5098522;28;20540;-68
2023/12/13 12:32:34;;;;;;;9.83;1.50;;;13.00;99.90;;;;;;5092646;28;20881;-70
2023/12/13 12:35:02;;;;;;;6.60;0.90;;;13.10;99.90;;;;;;5086256;28;20497;-69
2023/12/13 12:37:31;;;;;;;6.00;0.83;;;12.90;99.90;;;;;;5093448;28;20465;-68
2023/12/13 12:39:59;;;;;;;7.17;1.33;;;12.90;99.90;;;;;;5093176;28;20442;-68
2023/12/13 12:42:27;;;;;;;7.80;1.00;;;12.80;99.90;;;;;;5089278;28;20446;-69
2023/12/13 12:44:55;;;;;;;8.40;0.80;;;12.80;99.90;;;;;;5086481;28;20472;-67
2023/12/13 12:47:23;;;;;;;7.73;1.00;;;12.70;99.90;;;;;;5102485;27;20444;-67
2023/12/13 12:49:53;;;;;;;6.20;0.73;;;12.60;99.90;;;;;;5120022;27;20440;-68
2023/12/13 12:52:21;;;;;;;6.53;0.70;;;12.60;99.90;;;;;;5086496;28;20445;-67
2023/12/13 12:54:50;;;;;;;6.73;0.90;;;12.50;99.90;;;;;;5085345;28;20981;-69
2023/12/13 12:57:18;;;;;;;6.37;0.80;;;12.30;99.90;;;;;;5086539;28;20493;-67
2023/12/13 12:59:50;;;;;;;7.30;0.70;;;12.30;99.90;;;;;;5086269;28;20451;-68
2023/12/13 13:02:19;;;;;;;5.90;0.60;;;12.30;99.90;;;;;;5085982;28;20451;-69
2023/12/13 13:04:47;;;;;;;7.00;1.00;;;12.40;99.90;;;;;;5085235;28;20519;-67